sensor_id;sensor_type;location;lat;lon;timestamp;pressure;altitude;pressure_sealevel;temperature;humidity
78623;BME280;67943;54.412;9.502;2023-10-19T00:03:31;100242.28;;;9.60;69.42
78623;BME280;67943;54.412;9.502;2023-10-19T00:08:33;100234.09;;;9.39;70.14
78623;BME280;67943;54.412;9.502;2023-10-19T00:13:41;100225.34;;;9.39;70.31
78623;BME280;67943;54.412;9.502;2023-10-19T00:18:45;100220.53;;;9.55;69.78
78623;BME280;67943;54.412;9.502;2023-10-19T00:23:51;100205.78;;;9.51;69.48
78623;BME280;67943;54.412;9.502;2023-10-19T00:28:57;100195.75;;;9.32;70.46
78623;BME280;67943;54.412;9.502;2023-10-19T00:34:00;100172.56;;;9.50;69.09
78623;BME280;67943;54.412;9.502;2023-10-19T00:39:01;100186.63;;;9.47;69.44
78623;BME280;67943;54.412;9.502;2023-10-19T00:44:17;100159.50;;;9.46;69.19
78623;BME280;67943;54.412;9.502;2023-10-19T00:49:24;100158.09;;;9.33;69.46
78623;BME280;67943;54.412;9.502;2023-10-19T00:54:27;100148.50;;;9.32;69.79
78623;BME280;67943;54.412;9.502;2023-10-19T00:59:33;100156.09;;;9.43;69.09
78623;BME280;67943;54.412;9.502;2023-10-19T01:04:40;100139.41;;;9.45;69.12
78623;BME280;67943;54.412;9.502;2023-10-19T01:09:43;100132.34;;;9.47;68.80
78623;BME280;67943;54.412;9.502;2023-10-19T01:15:00;100125.63;;;9.37;68.68
78623;BME280;67943;54.412;9.502;2023-10-19T01:20:06;100122.22;;;9.34;68.74
78623;BME280;67943;54.412;9.502;2023-10-19T01:25:15;100116.06;;;9.35;68.28
78623;BME280;67943;54.412;9.502;2023-10-19T01:30:24;100109.47;;;9.53;67.85
78623;BME280;67943;54.412;9.502;2023-10-19T01:35:27;100101.38;;;9.59;67.56
78623;BME280;67943;54.412;9.502;2023-10-19T01:40:51;100084.03;;;9.53;67.29
78623;BME280;67943;54.412;9.502;2023-10-19T01:45:55;100077.88;;;9.54;67.65
78623;BME280;67943;54.412;9.502;2023-10-19T01:50:56;100055.56;;;9.39;67.78
78623;BME280;67943;54.412;9.502;2023-10-19T01:55:59;100050.94;;;9.47;68.01
78623;BME280;67943;54.412;9.502;2023-10-19T02:01:00;100034.00;;;9.58;68.37
78623;BME280;67943;54.412;9.502;2023-10-19T02:06:09;100034.53;;;9.39;68.60
78623;BME280;67943;54.412;9.502;2023-10-19T02:11:21;100029.28;;;9.39;68.74
78623;BME280;67943;54.412;9.502;2023-10-19T02:16:23;100021.97;;;9.51;68.41
78623;BME280;67943;54.412;9.502;2023-10-19T02:21:25;100015.19;;;9.43;68.46
78623;BME280;67943;54.412;9.502;2023-10-19T02:26:32;100002.78;;;9.48;68.21
78623;BME280;67943;54.412;9.502;2023-10-19T02:31:35;99998.84;;;9.62;67.55
78623;BME280;67943;54.412;9.502;2023-10-19T02:36:38;99991.50;;;9.45;68.02
78623;BME280;67943;54.412;9.502;2023-10-19T02:41:43;99999.25;;;9.50;68.08
78623;BME280;67943;54.412;9.502;2023-10-19T02:46:45;99980.88;;;9.50;68.12
78623;BME280;67943;54.412;9.502;2023-10-19T02:51:49;99981.97;;;9.70;67.52
78623;BME280;67943;54.412;9.502;2023-10-19T02:56:53;99967.44;;;9.59;67.30
78623;BME280;67943;54.412;9.502;2023-10-19T03:01:59;99961.91;;;9.68;67.28
78623;BME280;67943;54.412;9.502;2023-10-19T03:07:07;99953.41;;;9.60;67.43
78623;BME280;67943;54.412;9.502;2023-10-19T03:12:11;99949.50;;;9.73;67.23
78623;BME280;67943;54.412;9.502;2023-10-19T03:17:14;99943.56;;;9.66;67.84
78623;BME280;67943;54.412;9.502;2023-10-19T03:22:16;99947.38;;;9.84;66.62
78623;BME280;67943;54.412;9.502;2023-10-19T03:27:18;99942.44;;;9.75;67.46
78623;BME280;67943;54.412;9.502;2023-10-19T03:32:22;99940.81;;;9.71;67.47
78623;BME280;67943;54.412;9.502;2023-10-19T03:37:27;99940.81;;;9.71;68.28
78623;BME280;67943;54.412;9.502;2023-10-19T03:42:31;99948.34;;;9.81;67.65
78623;BME280;67943;54.412;9.502;2023-10-19T03:47:33;99947.69;;;9.75;67.69
78623;BME280;67943;54.412;9.502;2023-10-19T03:52:35;99940.53;;;9.80;68.13
78623;BME280;67943;54.412;9.502;2023-10-19T03:57:39;99946.81;;;9.74;68.20
78623;BME280;67943;54.412;9.502;2023-10-19T04:02:41;99951.75;;;9.83;67.85
78623;BME280;67943;54.412;9.502;2023-10-19T04:07:43;99944.09;;;9.77;67.80
78623;BME280;67943;54.412;9.502;2023-10-19T04:12:46;99943.25;;;9.77;68.26
78623;BME280;67943;54.412;9.502;2023-10-19T04:17:48;99937.38;;;9.69;68.76
78623;BME280;67943;54.412;9.502;2023-10-19T04:22:50;99917.38;;;9.91;67.23
78623;BME280;67943;54.412;9.502;2023-10-19T04:27:53;99922.53;;;9.94;67.21
78623;BME280;67943;54.412;9.502;2023-10-19T04:32:57;99901.31;;;10.00;66.45
78623;BME280;67943;54.412;9.502;2023-10-19T04:37:58;99902.94;;;10.04;66.14
78623;BME280;67943;54.412;9.502;2023-10-19T04:43:03;99885.38;;;10.05;65.29
78623;BME280;67943;54.412;9.502;2023-10-19T04:48:05;99875.22;;;9.94;66.27
78623;BME280;67943;54.412;9.502;2023-10-19T04:53:07;99879.28;;;10.04;65.74
78623;BME280;67943;54.412;9.502;2023-10-19T04:58:10;99862.78;;;9.99;65.22
78623;BME280;67943;54.412;9.502;2023-10-19T05:03:12;99864.50;;;10.00;65.46
78623;BME280;67943;54.412;9.502;2023-10-19T05:08:18;99856.72;;;10.24;64.66
78623;BME280;67943;54.412;9.502;2023-10-19T05:13:25;99847.09;;;9.98;65.42
78623;BME280;67943;54.412;9.502;2023-10-19T05:18:27;99843.09;;;10.11;64.48
78623;BME280;67943;54.412;9.502;2023-10-19T05:23:28;99832.84;;;10.30;63.68
78623;BME280;67943;54.412;9.502;2023-10-19T05:28:32;99834.47;;;10.34;63.50
78623;BME280;67943;54.412;9.502;2023-10-19T05:33:34;99829.22;;;10.07;63.85
78623;BME280;67943;54.412;9.502;2023-10-19T05:38:35;99829.69;;;10.19;63.74
78623;BME280;67943;54.412;9.502;2023-10-19T05:43:38;99829.94;;;10.11;64.07
78623;BME280;67943;54.412;9.502;2023-10-19T05:48:40;99821.06;;;10.15;64.44
78623;BME280;67943;54.412;9.502;2023-10-19T05:53:42;99830.31;;;10.27;63.71
78623;BME280;67943;54.412;9.502;2023-10-19T05:58:46;99833.44;;;10.38;63.04
78623;BME280;67943;54.412;9.502;2023-10-19T06:03:51;99833.56;;;10.08;63.92
78623;BME280;67943;54.412;9.502;2023-10-19T06:08:52;99831.19;;;10.27;63.14
78623;BME280;67943;54.412;9.502;2023-10-19T06:13:56;99844.28;;;10.29;63.15
78623;BME280;67943;54.412;9.502;2023-10-19T06:18:57;99844.47;;;10.23;63.15
78623;BME280;67943;54.412;9.502;2023-10-19T06:23:59;99848.56;;;10.31;62.72
78623;BME280;67943;54.412;9.502;2023-10-19T06:29:02;99837.59;;;10.43;62.50
78623;BME280;67943;54.412;9.502;2023-10-19T06:34:04;99838.06;;;10.31;62.67
78623;BME280;67943;54.412;9.502;2023-10-19T06:39:05;99836.97;;;10.37;62.36
78623;BME280;67943;54.412;9.502;2023-10-19T06:44:10;99854.19;;;10.21;63.01
78623;BME280;67943;54.412;9.502;2023-10-19T06:49:11;99865.09;;;10.35;63.53
78623;BME280;67943;54.412;9.502;2023-10-19T06:54:13;99866.91;;;10.33;62.86
78623;BME280;67943;54.412;9.502;2023-10-19T06:59:15;99872.88;;;10.38;62.36
78623;BME280;67943;54.412;9.502;2023-10-19T07:04:17;99881.16;;;10.51;62.72
78623;BME280;67943;54.412;9.502;2023-10-19T07:09:19;99882.03;;;10.26;63.90
78623;BME280;67943;54.412;9.502;2023-10-19T07:14:23;99877.44;;;10.33;63.94
78623;BME280;67943;54.412;9.502;2023-10-19T07:19:24;99877.38;;;10.34;64.30
78623;BME280;67943;54.412;9.502;2023-10-19T07:24:26;99874.94;;;10.53;63.78
78623;BME280;67943;54.412;9.502;2023-10-19T07:29:29;99871.97;;;10.39;63.70
78623;BME280;67943;54.412;9.502;2023-10-19T07:34:31;99865.66;;;10.43;64.25
78623;BME280;67943;54.412;9.502;2023-10-19T07:39:33;99868.06;;;10.49;63.99
78623;BME280;67943;54.412;9.502;2023-10-19T07:44:37;99879.59;;;10.45;65.04
78623;BME280;67943;54.412;9.502;2023-10-19T07:49:38;99878.44;;;10.29;65.46
78623;BME280;67943;54.412;9.502;2023-10-19T07:54:40;99886.13;;;10.35;65.79
78623;BME280;67943;54.412;9.502;2023-10-19T07:59:44;99884.13;;;10.41;65.51
78623;BME280;67943;54.412;9.502;2023-10-19T08:04:47;99888.91;;;10.30;66.84
78623;BME280;67943;54.412;9.502;2023-10-19T08:09:49;99869.06;;;10.22;68.42
78623;BME280;67943;54.412;9.502;2023-10-19T08:14:52;99865.50;;;10.47;67.13
78623;BME280;67943;54.412;9.502;2023-10-19T08:19:55;99861.56;;;10.36;69.37
78623;BME280;67943;54.412;9.502;2023-10-19T08:24:57;99864.41;;;10.30;69.33
78623;BME280;67943;54.412;9.502;2023-10-19T08:30:00;99874.38;;;10.19;69.60
78623;BME280;67943;54.412;9.502;2023-10-19T08:35:04;99875.63;;;10.35;69.04
78623;BME280;67943;54.412;9.502;2023-10-19T08:40:10;99858.59;;;10.19;70.02
78623;BME280;67943;54.412;9.502;2023-10-19T08:45:16;99864.66;;;10.22;69.98
78623;BME280;67943;54.412;9.502;2023-10-19T08:50:18;99865.84;;;10.38;69.66
78623;BME280;67943;54.412;9.502;2023-10-19T08:55:24;99872.38;;;10.27;70.65
78623;BME280;67943;54.412;9.502;2023-10-19T09:00:27;99870.97;;;10.41;70.33
78623;BME280;67943;54.412;9.502;2023-10-19T09:05:38;99855.34;;;10.38;69.99
78623;BME280;67943;54.412;9.502;2023-10-19T09:10:40;99863.47;;;10.31;71.54
78623;BME280;67943;54.412;9.502;2023-10-19T09:15:45;99874.09;;;10.28;71.16
78623;BME280;67943;54.412;9.502;2023-10-19T09:20:48;99877.28;;;10.37;70.79
78623;BME280;67943;54.412;9.502;2023-10-19T09:26:03;99889.44;;;10.40;70.92
78623;BME280;67943;54.412;9.502;2023-10-19T09:31:07;99906.06;;;10.40;70.44
78623;BME280;67943;54.412;9.502;2023-10-19T09:36:10;99924.31;;;10.45;70.67
78623;BME280;67943;54.412;9.502;2023-10-19T09:41:15;99927.38;;;10.33;71.35
78623;BME280;67943;54.412;9.502;2023-10-19T09:46:22;99950.03;;;10.37;71.21
78623;BME280;67943;54.412;9.502;2023-10-19T09:51:24;99960.81;;;10.29;72.76
78623;BME280;67943;54.412;9.502;2023-10-19T09:56:32;99959.00;;;10.31;73.44
78623;BME280;67943;54.412;9.502;2023-10-19T10:02:07;99965.00;;;10.35;73.91
78623;BME280;67943;54.412;9.502;2023-10-19T10:07:12;99963.19;;;10.37;74.37
78623;BME280;67943;54.412;9.502;2023-10-19T10:12:18;99962.44;;;10.33;75.13
78623;BME280;67943;54.412;9.502;2023-10-19T10:17:21;99954.59;;;10.32;76.60
78623;BME280;67943;54.412;9.502;2023-10-19T10:22:23;99944.72;;;10.38;76.26
78623;BME280;67943;54.412;9.502;2023-10-19T10:27:25;99945.09;;;10.28;77.33
78623;BME280;67943;54.412;9.502;2023-10-19T10:32:46;99946.03;;;10.25;78.60
78623;BME280;67943;54.412;9.502;2023-10-19T10:37:53;99937.31;;;10.25;78.66
78623;BME280;67943;54.412;9.502;2023-10-19T10:43:05;99914.66;;;10.21;79.81
78623;BME280;67943;54.412;9.502;2023-10-19T10:48:12;99900.41;;;10.28;79.72
78623;BME280;67943;54.412;9.502;2023-10-19T10:53:14;99891.00;;;10.21;80.54
78623;BME280;67943;54.412;9.502;2023-10-19T10:58:17;99873.28;;;10.26;80.52
78623;BME280;67943;54.412;9.502;2023-10-19T11:03:20;99862.69;;;10.29;80.54
78623;BME280;67943;54.412;9.502;2023-10-19T11:08:24;99850.38;;;10.29;81.05
78623;BME280;67943;54.412;9.502;2023-10-19T11:13:25;99849.75;;;10.23;81.67
78623;BME280;67943;54.412;9.502;2023-10-19T11:18:31;99835.78;;;10.21;82.54
78623;BME280;67943;54.412;9.502;2023-10-19T11:23:40;99817.41;;;10.44;81.87
78623;BME280;67943;54.412;9.502;2023-10-19T11:28:42;99806.34;;;10.36;82.48
78623;BME280;67943;54.412;9.502;2023-10-19T11:33:49;99805.53;;;10.34;82.59
78623;BME280;67943;54.412;9.502;2023-10-19T11:38:52;99795.53;;;10.19;84.01
78623;BME280;67943;54.412;9.502;2023-10-19T11:43:54;99794.44;;;10.26;83.58
78623;BME280;67943;54.412;9.502;2023-10-19T11:48:57;99789.00;;;10.30;82.56
78623;BME280;67943;54.412;9.502;2023-10-19T11:53:59;99791.16;;;10.42;82.01
78623;BME280;67943;54.412;9.502;2023-10-19T11:59:01;99771.19;;;10.38;81.81
78623;BME280;67943;54.412;9.502;2023-10-19T12:04:04;99764.38;;;10.56;79.47
78623;BME280;67943;54.412;9.502;2023-10-19T12:09:06;99755.09;;;10.46;80.69
78623;BME280;67943;54.412;9.502;2023-10-19T12:14:15;99771.47;;;10.54;79.27
78623;BME280;67943;54.412;9.502;2023-10-19T12:19:18;99769.75;;;10.53;79.96
78623;BME280;67943;54.412;9.502;2023-10-19T12:24:20;99769.75;;;10.53;80.56
78623;BME280;67943;54.412;9.502;2023-10-19T12:29:21;99786.53;;;10.49;80.18
78623;BME280;67943;54.412;9.502;2023-10-19T12:34:24;99780.72;;;10.41;81.33
78623;BME280;67943;54.412;9.502;2023-10-19T12:39:30;99756.13;;;10.42;81.55
78623;BME280;67943;54.412;9.502;2023-10-19T12:44:43;99766.78;;;10.39;81.53
78623;BME280;67943;54.412;9.502;2023-10-19T12:49:46;99748.50;;;10.36;81.14
78623;BME280;67943;54.412;9.502;2023-10-19T12:54:48;99755.63;;;10.32;81.35
78623;BME280;67943;54.412;9.502;2023-10-19T12:59:51;99763.69;;;10.28;81.45
78623;BME280;67943;54.412;9.502;2023-10-19T13:04:54;99771.47;;;10.54;80.61
78623;BME280;67943;54.412;9.502;2023-10-19T13:09:58;99765.19;;;10.35;79.97
78623;BME280;67943;54.412;9.502;2023-10-19T13:14:59;99763.34;;;10.37;80.00
78623;BME280;67943;54.412;9.502;2023-10-19T13:20:03;99759.66;;;10.41;79.67
78623;BME280;67943;54.412;9.502;2023-10-19T13:25:16;99742.91;;;10.43;79.15
78623;BME280;67943;54.412;9.502;2023-10-19T13:30:18;99739.34;;;10.23;80.71
78623;BME280;67943;54.412;9.502;2023-10-19T13:35:21;99728.00;;;10.44;80.42
78623;BME280;67943;54.412;9.502;2023-10-19T13:40:22;99728.63;;;10.51;80.90
78623;BME280;67943;54.412;9.502;2023-10-19T13:45:25;99743.78;;;10.44;80.99
78623;BME280;67943;54.412;9.502;2023-10-19T13:50:28;99731.31;;;10.49;80.33
78623;BME280;67943;54.412;9.502;2023-10-19T13:55:30;99738.78;;;10.38;81.44
78623;BME280;67943;54.412;9.502;2023-10-19T14:00:33;99724.47;;;10.45;80.47
78623;BME280;67943;54.412;9.502;2023-10-19T14:05:43;99719.97;;;10.70;79.93
78623;BME280;67943;54.412;9.502;2023-10-19T14:10:48;99697.31;;;10.44;81.24
78623;BME280;67943;54.412;9.502;2023-10-19T14:15:52;99687.69;;;10.43;80.82
78623;BME280;67943;54.412;9.502;2023-10-19T14:20:55;99702.44;;;10.47;80.45
78623;BME280;67943;54.412;9.502;2023-10-19T14:25:57;99693.59;;;10.50;80.74
78623;BME280;67943;54.412;9.502;2023-10-19T14:30:58;99682.91;;;10.55;80.71
78623;BME280;67943;54.412;9.502;2023-10-19T14:36:09;99692.31;;;10.60;80.58
78623;BME280;67943;54.412;9.502;2023-10-19T14:41:11;99686.94;;;10.63;80.19
78623;BME280;67943;54.412;9.502;2023-10-19T14:46:13;99693.34;;;10.56;79.57
78623;BME280;67943;54.412;9.502;2023-10-19T14:51:15;99676.38;;;10.65;79.74
78623;BME280;67943;54.412;9.502;2023-10-19T14:56:17;99649.00;;;10.69;79.22
78623;BME280;67943;54.412;9.502;2023-10-19T15:01:22;99653.53;;;10.65;78.65
78623;BME280;67943;54.412;9.502;2023-10-19T15:06:27;99678.25;;;10.61;78.83
78623;BME280;67943;54.412;9.502;2023-10-19T15:11:29;99687.28;;;10.54;79.06
78623;BME280;67943;54.412;9.502;2023-10-19T15:16:31;99713.06;;;10.68;78.01
78623;BME280;67943;54.412;9.502;2023-10-19T15:21:33;99699.06;;;10.67;77.73
78623;BME280;67943;54.412;9.502;2023-10-19T15:26:35;99707.94;;;10.65;79.08
78623;BME280;67943;54.412;9.502;2023-10-19T15:31:37;99703.06;;;10.54;78.46
78623;BME280;67943;54.412;9.502;2023-10-19T15:36:40;99701.47;;;10.50;79.43
78623;BME280;67943;54.412;9.502;2023-10-19T15:41:47;99705.72;;;10.54;80.23
78623;BME280;67943;54.412;9.502;2023-10-19T15:46:49;99712.63;;;10.57;80.39
78623;BME280;67943;54.412;9.502;2023-10-19T15:51:54;99694.50;;;10.49;80.22
78623;BME280;67943;54.412;9.502;2023-10-19T15:56:55;99704.16;;;10.48;80.25
78623;BME280;67943;54.412;9.502;2023-10-19T16:01:57;99688.81;;;10.38;80.76
78623;BME280;67943;54.412;9.502;2023-10-19T16:07:00;99694.28;;;10.55;80.11
78623;BME280;67943;54.412;9.502;2023-10-19T16:12:02;99690.44;;;10.64;79.17
78623;BME280;67943;54.412;9.502;2023-10-19T16:17:03;99696.44;;;10.44;80.25
78623;BME280;67943;54.412;9.502;2023-10-19T16:22:06;99689.75;;;10.37;80.62
78623;BME280;67943;54.412;9.502;2023-10-19T16:27:07;99691.19;;;10.44;80.44
78623;BME280;67943;54.412;9.502;2023-10-19T16:32:09;99709.59;;;10.44;80.01
78623;BME280;67943;54.412;9.502;2023-10-19T16:37:12;99716.56;;;10.45;79.63
78623;BME280;67943;54.412;9.502;2023-10-19T16:42:13;99710.63;;;10.40;79.89
78623;BME280;67943;54.412;9.502;2023-10-19T16:47:15;99705.47;;;10.38;79.48
78623;BME280;67943;54.412;9.502;2023-10-19T16:52:18;99711.38;;;10.43;79.05
78623;BME280;67943;54.412;9.502;2023-10-19T16:57:19;99709.72;;;10.41;79.22
78623;BME280;67943;54.412;9.502;2023-10-19T17:02:22;99730.53;;;10.47;78.81
78623;BME280;67943;54.412;9.502;2023-10-19T17:07:26;99742.69;;;10.49;78.81
78623;BME280;67943;54.412;9.502;2023-10-19T17:12:28;99727.53;;;10.56;78.52
78623;BME280;67943;54.412;9.502;2023-10-19T17:17:33;99718.06;;;10.52;78.59
78623;BME280;67943;54.412;9.502;2023-10-19T17:22:36;99723.19;;;10.55;78.94
78623;BME280;67943;54.412;9.502;2023-10-19T17:27:37;99728.13;;;10.41;79.89
78623;BME280;67943;54.412;9.502;2023-10-19T17:32:39;99724.34;;;10.48;79.64
78623;BME280;67943;54.412;9.502;2023-10-19T17:37:42;99733.84;;;10.52;79.35
78623;BME280;67943;54.412;9.502;2023-10-19T17:42:44;99731.16;;;10.30;80.42
78623;BME280;67943;54.412;9.502;2023-10-19T17:47:45;99728.25;;;10.38;80.18
78623;BME280;67943;54.412;9.502;2023-10-19T17:52:49;99723.44;;;10.49;80.29
78623;BME280;67943;54.412;9.502;2023-10-19T17:57:50;99718.88;;;10.31;80.19
78623;BME280;67943;54.412;9.502;2023-10-19T18:02:53;99730.41;;;10.27;80.58
78623;BME280;67943;54.412;9.502;2023-10-19T18:07:56;99726.53;;;10.37;80.50
78623;BME280;67943;54.412;9.502;2023-10-19T18:12:58;99710.31;;;10.26;81.49
78623;BME280;67943;54.412;9.502;2023-10-19T18:18:00;99699.00;;;10.24;80.97
78623;BME280;67943;54.412;9.502;2023-10-19T18:23:04;99699.41;;;10.11;81.24
78623;BME280;67943;54.412;9.502;2023-10-19T18:28:05;99704.13;;;10.27;80.80
78623;BME280;67943;54.412;9.502;2023-10-19T18:33:08;99707.19;;;10.14;81.00
78623;BME280;67943;54.412;9.502;2023-10-19T18:38:11;99718.84;;;10.07;81.31
78623;BME280;67943;54.412;9.502;2023-10-19T18:43:13;99712.44;;;10.14;82.12
78623;BME280;67943;54.412;9.502;2023-10-19T18:48:14;99712.31;;;10.18;82.43
78623;BME280;67943;54.412;9.502;2023-10-19T18:53:18;99707.59;;;10.04;82.22
78623;BME280;67943;54.412;9.502;2023-10-19T18:58:21;99715.31;;;10.08;82.60
78623;BME280;67943;54.412;9.502;2023-10-19T19:03:24;99711.91;;;9.81;82.38
78623;BME280;67943;54.412;9.502;2023-10-19T19:08:29;99712.75;;;9.82;82.22
78623;BME280;67943;54.412;9.502;2023-10-19T19:13:31;99711.50;;;9.92;81.69
78623;BME280;67943;54.412;9.502;2023-10-19T19:18:34;99716.47;;;9.76;82.01
78623;BME280;67943;54.412;9.502;2023-10-19T19:23:38;99709.81;;;9.66;83.15
78623;BME280;67943;54.412;9.502;2023-10-19T19:28:40;99722.59;;;9.52;84.12
78623;BME280;67943;54.412;9.502;2023-10-19T19:33:44;99726.28;;;9.71;83.77
78623;BME280;67943;54.412;9.502;2023-10-19T19:38:47;99728.03;;;9.71;84.04
78623;BME280;67943;54.412;9.502;2023-10-19T19:43:49;99724.06;;;9.84;82.88
78623;BME280;67943;54.412;9.502;2023-10-19T19:48:52;99725.78;;;9.85;82.37
78623;BME280;67943;54.412;9.502;2023-10-19T19:53:55;99733.84;;;9.80;81.44
78623;BME280;67943;54.412;9.502;2023-10-19T19:58:56;99728.19;;;9.91;80.82
78623;BME280;67943;54.412;9.502;2023-10-19T20:03:59;99734.16;;;9.71;79.81
78623;BME280;67943;54.412;9.502;2023-10-19T20:09:04;99721.47;;;9.82;79.03
78623;BME280;67943;54.412;9.502;2023-10-19T20:14:16;99720.00;;;9.75;79.58
78623;BME280;67943;54.412;9.502;2023-10-19T20:19:18;99718.75;;;9.61;81.36
78623;BME280;67943;54.412;9.502;2023-10-19T20:24:21;99712.88;;;9.79;80.82
78623;BME280;67943;54.412;9.502;2023-10-19T20:29:24;99708.25;;;9.61;82.59
78623;BME280;67943;54.412;9.502;2023-10-19T20:34:25;99691.75;;;9.57;82.27
78623;BME280;67943;54.412;9.502;2023-10-19T20:39:28;99680.56;;;9.52;82.71
78623;BME280;67943;54.412;9.502;2023-10-19T20:44:30;99685.97;;;9.47;83.01
78623;BME280;67943;54.412;9.502;2023-10-19T20:49:40;99692.00;;;9.51;82.61
78623;BME280;67943;54.412;9.502;2023-10-19T20:54:43;99692.66;;;9.31;84.28
78623;BME280;67943;54.412;9.502;2023-10-19T20:59:45;99693.91;;;9.21;84.60
78623;BME280;67943;54.412;9.502;2023-10-19T21:04:46;99690.22;;;9.25;84.30
78623;BME280;67943;54.412;9.502;2023-10-19T21:09:49;99695.47;;;9.25;83.94
78623;BME280;67943;54.412;9.502;2023-10-19T21:14:51;99720.38;;;9.40;84.01
78623;BME280;67943;54.412;9.502;2023-10-19T21:19:52;99705.13;;;9.25;85.09
78623;BME280;67943;54.412;9.502;2023-10-19T21:24:56;99698.72;;;9.33;85.85
78623;BME280;67943;54.412;9.502;2023-10-19T21:29:57;99701.16;;;9.13;86.23
78623;BME280;67943;54.412;9.502;2023-10-19T21:34:59;99705.31;;;9.20;86.55
78623;BME280;67943;54.412;9.502;2023-10-19T21:40:02;99697.56;;;9.16;86.88
78623;BME280;67943;54.412;9.502;2023-10-19T21:45:06;99688.91;;;9.13;87.33
78623;BME280;67943;54.412;9.502;2023-10-19T21:50:08;99687.19;;;9.12;87.71
78623;BME280;67943;54.412;9.502;2023-10-19T21:55:12;99691.72;;;9.07;87.73
78623;BME280;67943;54.412;9.502;2023-10-19T22:00:14;99688.94;;;9.12;87.72
78623;BME280;67943;54.412;9.502;2023-10-19T22:05:26;99695.72;;;9.19;87.39
78623;BME280;67943;54.412;9.502;2023-10-19T22:10:28;99690.94;;;9.04;88.19
78623;BME280;67943;54.412;9.502;2023-10-19T22:15:30;99678.31;;;9.17;87.04
78623;BME280;67943;54.412;9.502;2023-10-19T22:20:31;99680.38;;;9.07;87.28
78623;BME280;67943;54.412;9.502;2023-10-19T22:25:34;99684.09;;;9.00;87.13
78623;BME280;67943;54.412;9.502;2023-10-19T22:30:36;99678.84;;;9.00;86.84
78623;BME280;67943;54.412;9.502;2023-10-19T22:35:38;99682.38;;;8.99;86.60
78623;BME280;67943;54.412;9.502;2023-10-19T22:40:42;99682.84;;;9.11;86.44
78623;BME280;67943;54.412;9.502;2023-10-19T22:45:45;99663.53;;;8.88;86.73
78623;BME280;67943;54.412;9.502;2023-10-19T22:50:46;99672.19;;;8.90;86.30
78623;BME280;67943;54.412;9.502;2023-10-19T22:55:49;99676.94;;;8.78;86.83
78623;BME280;67943;54.412;9.502;2023-10-19T23:00:51;99670.38;;;8.92;86.15
78623;BME280;67943;54.412;9.502;2023-10-19T23:05:52;99665.19;;;8.90;86.38
78623;BME280;67943;54.412;9.502;2023-10-19T23:10:56;99665.63;;;8.76;86.57
78623;BME280;67943;54.412;9.502;2023-10-19T23:15:57;99649.69;;;8.83;86.09
78623;BME280;67943;54.412;9.502;2023-10-19T23:21:00;99631.94;;;8.91;86.25
78623;BME280;67943;54.412;9.502;2023-10-19T23:26:03;99627.09;;;8.78;86.49
78623;BME280;67943;54.412;9.502;2023-10-19T23:31:04;99630.22;;;8.90;86.39
78623;BME280;67943;54.412;9.502;2023-10-19T23:36:07;99638.53;;;8.76;86.99
78623;BME280;67943;54.412;9.502;2023-10-19T23:41:10;99623.09;;;8.67;88.56
78623;BME280;67943;54.412;9.502;2023-10-19T23:46:12;99619.78;;;8.62;88.63
78623;BME280;67943;54.412;9.502;2023-10-19T23:51:13;99618.94;;;8.61;88.73
78623;BME280;67943;54.412;9.502;2023-10-19T23:56:16;99621.78;;;8.54;89.17
